Terminal Aerodrome Forecast
Issued by NWS Sterling, VA

Current Version | Previous Version | Text Only | Print | Product List | Glossary Off
Versions: 1 2 3 4 5 6 7 8 9 10 11 12 13 14 15 16 17 18 19 20 21 22 23 24 25 26 27 28 29 30 31

000
FTUS41 KLWX 301738
TAFIAD
TAF
KIAD 301738Z 3018/0124 20009G18KT P6SM SCT040
     FM301900 20009G18KT P6SM VCTS BKN040CB
     FM010000 20005KT P6SM VCTS OVC050CB
     FM010500 27004KT P6SM OVC050
     FM010900 00000KT P6SM BKN060
     FM011300 27005KT P6SM SCT050=

USA.gov is the U.S. government's official web portal to all federal, state and local government web resources and services.